Time;durP1;ratioP1;P1;durP2;ratioP2;P2;SDS_P1;SDS_P2;PMS_P1;PMS_P2;Temp;Humidity;BMP_temperature;BMP_pressure;BME280_temperature;BME280_humidity;BME280_pressure;Samples;Min_cycle;Max_cycle;Signal;HPM_P1;HPM_P2
2022/06/06 00:01:47;;;;;;;5.37;3.15;;;;;;;;;;4464319;32;20680;-58
2022/06/06 00:04:13;;;;;;;14.45;4.53;;;;;;;;;;4463249;32;20252;-58
2022/06/06 00:06:39;;;;;;;5.85;3.72;;;;;;;;;;4464494;32;20334;-59
2022/06/06 00:09:06;;;;;;;5.12;3.33;;;;;;;;;;4454251;32;20351;-59
2022/06/06 00:11:35;;;;;;;8.95;3.72;;;;;;;;;;4448600;32;20224;-58
2022/06/06 00:14:00;;;;;;;5.57;3.12;;;;;;;;;;4448742;32;20575;-58
2022/06/06 00:16:26;;;;;;;7.93;3.25;;;;;;;;;;4448398;32;20216;-58
2022/06/06 00:18:51;;;;;;;8.75;3.30;;;;;;;;;;4448832;32;20275;-59
2022/06/06 00:21:17;;;;;;;6.53;3.30;;;;;;;;;;4448381;32;20727;-58
2022/06/06 00:23:42;;;;;;;15.38;3.67;;;;;;;;;;4448584;32;20326;-58
2022/06/06 00:26:11;;;;;;;8.68;3.10;;;;;;;;;;4448681;32;20682;-58
2022/06/06 00:28:39;;;;;;;6.68;3.45;;;;;;;;;;4448721;32;20509;-59
2022/06/06 00:36:35;;;;;;;10.15;4.37;;;;;;;;;;4447150;32;20280;-58
2022/06/06 00:39:02;;;;;;;11.68;5.90;;;;;;;;;;4447369;32;20235;-58
2022/06/06 00:41:27;;;;;;;8.07;4.75;;;;;;;;;;4448279;32;20247;-58
2022/06/06 00:44:08;;;;;;;15.05;5.80;;;;;;;;;;4453629;32;20294;-58
2022/06/06 00:46:37;;;;;;;8.48;5.43;;;;;;;;;;4453739;32;20228;-58
2022/06/06 00:49:04;;;;;;;11.73;4.82;;;;;;;;;;4453677;32;20327;-58
2022/06/06 00:51:31;;;;;;;5.57;4.20;;;;;;;;;;4455400;32;20353;-58
2022/06/06 00:53:57;;;;;;;7.72;3.78;;;;;;;;;;4469370;32;20556;-58
2022/06/06 00:56:27;;;;;;;7.47;2.78;;;;;;;;;;4468743;32;20723;-57
2022/06/06 00:59:01;;;;;;;15.10;4.68;;;;;;;;;;4469063;32;20263;-57
2022/06/06 01:01:27;;;;;;;7.68;4.75;;;;;;;;;;4469257;32;20716;-57
2022/06/06 01:04:00;;;;;;;6.45;3.90;;;;;;;;;;4468441;32;20327;-57
2022/06/06 01:06:29;;;;;;;7.55;3.53;;;;;;;;;;4469238;32;20602;-57
2022/06/06 01:08:56;;;;;;;8.15;4.05;;;;;;;;;;4468870;32;20632;-57
2022/06/06 01:11:21;;;;;;;6.32;4.50;;;;;;;;;;4457497;32;20244;-57
2022/06/06 01:13:48;;;;;;;7.45;4.35;;;;;;;;;;4453483;32;20315;-58
2022/06/06 01:16:22;;;;;;;16.27;4.57;;;;;;;;;;4455620;32;20231;-58
2022/06/06 01:19:02;;;;;;;7.35;4.12;;;;;;;;;;4469389;32;20211;-58
2022/06/06 01:21:34;;;;;;;9.23;4.80;;;;;;;;;;4467684;32;20307;-58
2022/06/06 01:24:15;;;;;;;8.80;4.28;;;;;;;;;;4469291;32;20204;-57
2022/06/06 01:26:53;;;;;;;9.68;4.00;;;;;;;;;;4457072;32;20650;-57
2022/06/06 01:29:27;;;;;;;9.20;5.18;;;;;;;;;;4453589;32;20730;-57
2022/06/06 01:32:05;;;;;;;10.52;4.45;;;;;;;;;;4453251;32;20731;-57
2022/06/06 01:34:35;;;;;;;6.18;4.22;;;;;;;;;;4454026;32;20272;-57
2022/06/06 01:37:02;;;;;;;8.25;5.25;;;;;;;;;;4453015;32;20270;-58
2022/06/06 01:39:30;;;;;;;8.02;4.35;;;;;;;;;;4453275;32;20255;-58
2022/06/06 01:42:08;;;;;;;12.40;4.43;;;;;;;;;;4453338;32;20795;-57
2022/06/06 01:44:59;;;;;;;6.03;4.28;;;;;;;;;;4453368;32;20224;-57
2022/06/06 01:47:39;;;;;;;9.45;4.75;;;;;;;;;;4453091;32;20244;-57
2022/06/06 01:50:06;;;;;;;11.40;4.28;;;;;;;;;;4453063;32;20328;-56
2022/06/06 01:52:50;;;;;;;11.02;4.78;;;;;;;;;;4462271;32;20655;-57
2022/06/06 01:55:16;;;;;;;9.07;4.50;;;;;;;;;;4465856;32;20295;-57
2022/06/06 01:57:42;;;;;;;9.07;4.85;;;;;;;;;;4466710;32;20281;-57
2022/06/06 02:00:08;;;;;;;12.15;4.55;;;;;;;;;;4466412;32;20203;-58
2022/06/06 02:02:34;;;;;;;5.93;4.35;;;;;;;;;;4466662;32;20254;-58
2022/06/06 02:05:00;;;;;;;11.45;5.12;;;;;;;;;;4466002;32;20275;-58
2022/06/06 02:07:26;;;;;;;9.07;4.00;;;;;;;;;;4458580;32;20224;-57
2022/06/06 02:09:51;;;;;;;9.77;4.78;;;;;;;;;;4464472;32;20220;-57
2022/06/06 02:12:19;;;;;;;11.23;4.45;;;;;;;;;;4450493;32;20250;-58
2022/06/06 02:14:45;;;;;;;10.10;4.55;;;;;;;;;;4450836;32;20212;-58
2022/06/06 02:17:10;;;;;;;9.30;5.20;;;;;;;;;;4458759;32;20494;-58
2022/06/06 02:19:37;;;;;;;7.53;4.53;;;;;;;;;;4466360;32;20283;-58
2022/06/06 02:22:03;;;;;;;8.77;5.10;;;;;;;;;;4459528;32;20227;-57
2022/06/06 02:24:29;;;;;;;8.73;5.22;;;;;;;;;;4450339;32;20338;-61
2022/06/06 02:26:55;;;;;;;7.03;3.75;;;;;;;;;;4450476;32;20313;-57
2022/06/06 02:29:21;;;;;;;5.80;4.70;;;;;;;;;;4450604;32;20283;-58
2022/06/06 02:31:46;;;;;;;12.52;4.32;;;;;;;;;;4450207;32;20228;-57
2022/06/06 02:34:12;;;;;;;9.48;4.53;;;;;;;;;;4450185;32;20280;-57
2022/06/06 02:36:38;;;;;;;13.60;4.47;;;;;;;;;;4449648;32;20251;-57
2022/06/06 02:39:04;;;;;;;10.40;4.50;;;;;;;;;;4450090;32;20240;-57
2022/06/06 02:41:30;;;;;;;11.88;6.22;;;;;;;;;;4450137;32;20243;-57
2022/06/06 02:43:58;;;;;;;9.55;5.12;;;;;;;;;;4450387;32;20307;-56
2022/06/06 02:46:24;;;;;;;10.10;5.80;;;;;;;;;;4450461;32;20240;-57
2022/06/06 02:48:50;;;;;;;25.08;5.85;;;;;;;;;;4449951;32;20267;-57
2022/06/06 02:51:15;;;;;;;7.07;3.72;;;;;;;;;;4450339;32;20247;-56
2022/06/06 02:53:41;;;;;;;11.75;5.15;;;;;;;;;;4465558;32;20367;-56
2022/06/06 02:56:07;;;;;;;8.27;5.25;;;;;;;;;;4465295;32;20589;-57
2022/06/06 02:58:33;;;;;;;8.98;5.05;;;;;;;;;;4465405;32;20397;-58
2022/06/06 03:01:05;;;;;;;8.57;5.07;;;;;;;;;;4465135;32;20203;-57
2022/06/06 03:03:32;;;;;;;9.23;5.22;;;;;;;;;;4465235;32;20216;-57
2022/06/06 03:06:10;;;;;;;9.27;4.97;;;;;;;;;;4464849;32;20594;-57
2022/06/06 03:08:48;;;;;;;11.20;4.57;;;;;;;;;;4465292;32;20448;-57
2022/06/06 03:11:36;;;;;;;17.23;5.25;;;;;;;;;;4455294;32;20232;-56
2022/06/06 03:14:12;;;;;;;9.18;4.75;;;;;;;;;;4427299;32;20232;-57
2022/06/06 03:23:20;;;;;;;7.40;5.07;;;;;;;;;;4449401;32;20285;-57
2022/06/06 03:26:13;;;;;;;11.60;5.07;;;;;;;;;;4447272;32;20637;-56
2022/06/06 03:28:57;;;;;;;11.45;4.20;;;;;;;;;;4449532;32;20379;-57
2022/06/06 03:31:56;;;;;;;5.20;3.62;;;;;;;;;;4447826;32;20285;-57
2022/06/06 03:34:30;;;;;;;4.47;3.75;;;;;;;;;;4449314;32;20603;-57
2022/06/06 03:37:15;;;;;;;9.77;5.18;;;;;;;;;;4448815;32;20224;-57
2022/06/06 03:39:49;;;;;;;14.35;4.85;;;;;;;;;;4448017;32;20212;-57
2022/06/06 03:42:20;;;;;;;8.93;4.60;;;;;;;;;;4449536;32;20208;-58
2022/06/06 03:45:18;;;;;;;7.75;4.70;;;;;;;;;;4449297;32;20195;-58
2022/06/06 03:48:03;;;;;;;10.98;4.35;;;;;;;;;;4422667;32;20292;-58
2022/06/06 03:50:44;;;;;;;11.35;4.62;;;;;;;;;;4448699;32;20193;-58
2022/06/06 03:53:17;;;;;;;8.93;5.07;;;;;;;;;;4461856;32;20314;-58
2022/06/06 03:55:54;;;;;;;11.38;4.55;;;;;;;;;;4464250;32;20685;-55
2022/06/06 03:58:22;;;;;;;11.25;5.37;;;;;;;;;;4464876;32;20537;-57
2022/06/06 04:00:47;;;;;;;7.45;4.53;;;;;;;;;;4450847;32;20340;-58
2022/06/06 04:03:16;;;;;;;11.88;4.80;;;;;;;;;;4448577;32;20412;-59
2022/06/06 04:05:42;;;;;;;15.13;5.30;;;;;;;;;;4448706;32;20196;-57
2022/06/06 04:08:10;;;;;;;13.75;5.47;;;;;;;;;;4452860;32;20240;-57
2022/06/06 04:11:01;;;;;;;9.90;5.68;;;;;;;;;;4456967;32;20217;-57
2022/06/06 04:13:38;;;;;;;8.63;4.78;;;;;;;;;;4448732;32;20192;-56
2022/06/06 04:16:11;;;;;;;7.40;4.87;;;;;;;;;;4449793;32;20191;-56
2022/06/06 04:18:56;;;;;;;10.35;5.85;;;;;;;;;;4462829;32;20307;-56
2022/06/06 04:21:47;;;;;;;12.07;5.68;;;;;;;;;;4463882;32;20292;-56
2022/06/06 04:24:32;;;;;;;7.50;5.35;;;;;;;;;;4463103;32;20235;-57
2022/06/06 04:27:24;;;;;;;18.12;5.80;;;;;;;;;;4464320;32;20357;-56
2022/06/06 04:29:56;;;;;;;6.72;5.43;;;;;;;;;;4464652;32;20188;-58
2022/06/06 04:33:16;;;;;;;11.77;6.05;;;;;;;;;;4464270;32;20262;-57
2022/06/06 04:35:53;;;;;;;12.85;6.35;;;;;;;;;;4415154;32;20197;-57
2022/06/06 04:38:29;;;;;;;12.25;6.05;;;;;;;;;;4457962;32;20294;-58
2022/06/06 04:41:13;;;;;;;13.73;6.05;;;;;;;;;;4464399;32;20188;-58
2022/06/06 04:44:06;;;;;;;12.35;5.35;;;;;;;;;;4464414;32;20309;-58
2022/06/06 04:46:50;;;;;;;9.27;4.72;;;;;;;;;;4464584;32;20688;-57
2022/06/06 04:49:16;;;;;;;9.43;4.50;;;;;;;;;;4463893;32;20218;-57
2022/06/06 04:51:43;;;;;;;8.30;4.57;;;;;;;;;;4460237;32;20297;-56
2022/06/06 04:54:14;;;;;;;7.78;4.70;;;;;;;;;;4448236;32;20764;-57
2022/06/06 04:56:42;;;;;;;12.93;4.80;;;;;;;;;;4448312;32;20376;-56
2022/06/06 04:59:10;;;;;;;10.77;5.00;;;;;;;;;;4447691;32;20796;-56
2022/06/06 05:01:37;;;;;;;7.37;4.53;;;;;;;;;;4447521;32;20209;-56
2022/06/06 05:04:02;;;;;;;8.95;4.45;;;;;;;;;;4447011;32;20316;-56
2022/06/06 05:06:46;;;;;;;8.50;4.90;;;;;;;;;;4447981;32;20699;-57
2022/06/06 05:09:38;;;;;;;9.27;4.82;;;;;;;;;;4458457;32;20212;-58
2022/06/06 05:12:18;;;;;;;10.63;4.87;;;;;;;;;;4457438;32;20228;-57
2022/06/06 05:15:19;;;;;;;12.23;4.87;;;;;;;;;;4447826;32;20299;-57
2022/06/06 05:17:55;;;;;;;9.10;4.37;;;;;;;;;;4439539;32;20262;-56
2022/06/06 05:20:26;;;;;;;9.43;5.43;;;;;;;;;;4463098;32;20659;-57
2022/06/06 05:22:58;;;;;;;10.82;5.07;;;;;;;;;;4462115;32;20259;-57
2022/06/06 05:25:41;;;;;;;13.60;5.50;;;;;;;;;;4462276;32;20230;-58
2022/06/06 05:28:44;;;;;;;12.37;5.55;;;;;;;;;;4463128;32;20255;-57
2022/06/06 05:31:22;;;;;;;20.10;5.25;;;;;;;;;;4465466;32;20231;-57
2022/06/06 05:34:07;;;;;;;15.45;5.18;;;;;;;;;;4466012;32;20259;-58
2022/06/06 05:36:46;;;;;;;15.38;6.03;;;;;;;;;;4465413;32;20240;-58
2022/06/06 05:39:34;;;;;;;12.32;6.20;;;;;;;;;;4465437;32;20189;-57
2022/06/06 05:42:12;;;;;;;14.85;5.35;;;;;;;;;;4465848;32;20220;-57
2022/06/06 05:44:46;;;;;;;16.15;5.20;;;;;;;;;;4465875;32;20532;-57
2022/06/06 05:47:26;;;;;;;14.95;5.03;;;;;;;;;;4465738;32;20270;-57
2022/06/06 05:50:10;;;;;;;14.38;6.37;;;;;;;;;;4465918;32;20279;-57
2022/06/06 05:53:08;;;;;;;7.32;4.70;;;;;;;;;;4456533;32;20251;-57
2022/06/06 05:56:27;;;;;;;28.92;8.20;;;;;;;;;;4448975;32;20216;-57
2022/06/06 05:59:14;;;;;;;15.23;5.97;;;;;;;;;;4416870;32;20281;-57
2022/06/06 06:02:17;;;;;;;14.68;5.75;;;;;;;;;;4465655;32;20443;-58
2022/06/06 06:04:54;;;;;;;11.10;5.80;;;;;;;;;;4465480;32;20187;-58
2022/06/06 06:07:43;;;;;;;14.48;5.30;;;;;;;;;;4457694;32;20247;-59
2022/06/06 06:10:16;;;;;;;14.82;5.80;;;;;;;;;;4449957;32;20234;-58
2022/06/06 06:12:52;;;;;;;20.48;6.32;;;;;;;;;;4450237;32;20254;-58
2022/06/06 06:15:38;;;;;;;21.12;8.93;;;;;;;;;;4450130;32;20184;-58
2022/06/06 06:18:13;;;;;;;13.57;6.97;;;;;;;;;;4449407;32;20217;-58
2022/06/06 06:20:44;;;;;;;12.35;6.35;;;;;;;;;;4449551;32;20192;-58
2022/06/06 06:23:15;;;;;;;16.00;6.40;;;;;;;;;;4449622;32;20335;-59
2022/06/06 06:36:39;;;;;;;15.52;6.37;;;;;;;;;;4447861;32;20239;-57
2022/06/06 06:39:16;;;;;;;12.30;6.50;;;;;;;;;;4448354;32;20215;-58
2022/06/06 06:42:06;;;;;;;11.93;6.07;;;;;;;;;;4449001;32;20293;-58
2022/06/06 06:44:40;;;;;;;11.60;5.03;;;;;;;;;;4447884;32;20212;-58
2022/06/06 07:10:08;;;;;;;11.73;6.55;;;;;;;;;;4448872;32;20310;-57
2022/06/06 07:12:40;;;;;;;16.98;5.95;;;;;;;;;;4450228;32;20589;-57
2022/06/06 07:15:11;;;;;;;10.50;5.90;;;;;;;;;;4450942;32;20617;-58
2022/06/06 15:07:54;;;;;;;9.90;2.87;;;;;;;;;;4457071;32;20248;-59
2022/06/06 15:10:43;;;;;;;4.85;2.87;;;;;;;;;;4455742;32;20319;-59
2022/06/06 15:13:09;;;;;;;8.70;3.37;;;;;;;;;;4458546;32;20321;-59
2022/06/06 15:15:37;;;;;;;14.50;2.92;;;;;;;;;;4454322;32;20268;-59
2022/06/06 15:18:03;;;;;;;6.32;2.90;;;;;;;;;;4462384;32;20748;-60
2022/06/06 15:20:33;;;;;;;10.75;3.47;;;;;;;;;;4464776;32;20598;-60
2022/06/06 15:23:05;;;;;;;8.23;2.80;;;;;;;;;;4464984;32;20648;-59
2022/06/06 15:25:59;;;;;;;15.55;3.00;;;;;;;;;;4460883;32;20216;-59
2022/06/06 15:28:32;;;;;;;12.55;3.05;;;;;;;;;;4449081;32;20552;-58
2022/06/06 15:31:20;;;;;;;22.45;3.55;;;;;;;;;;4465070;32;20238;-59
2022/06/06 15:34:12;;;;;;;10.15;3.22;;;;;;;;;;4465875;32;20224;-60
2022/06/06 15:36:49;;;;;;;12.90;3.28;;;;;;;;;;4465795;32;20576;-59
2022/06/06 15:39:34;;;;;;;11.55;2.62;;;;;;;;;;4466078;32;20231;-61
2022/06/06 15:42:05;;;;;;;6.65;2.72;;;;;;;;;;4462676;32;20354;-61
2022/06/06 15:44:42;;;;;;;5.70;2.83;;;;;;;;;;4450289;32;20267;-58
2022/06/06 15:47:35;;;;;;;5.25;2.67;;;;;;;;;;4449754;32;20248;-60
2022/06/06 15:50:16;;;;;;;21.12;2.92;;;;;;;;;;4450365;32;20201;-60
2022/06/06 15:53:04;;;;;;;19.62;3.05;;;;;;;;;;4459751;32;20247;-59
2022/06/06 15:55:36;;;;;;;10.85;2.95;;;;;;;;;;4463800;32;20437;-59
2022/06/06 15:58:04;;;;;;;6.62;2.50;;;;;;;;;;4465125;32;20235;-58
2022/06/06 16:00:49;;;;;;;7.82;2.30;;;;;;;;;;4465418;32;20698;-59
2022/06/06 16:03:36;;;;;;;5.10;2.62;;;;;;;;;;4463687;32;20247;-60
2022/06/06 16:06:02;;;;;;;6.65;2.37;;;;;;;;;;4464882;32;20216;-60
2022/06/06 16:08:36;;;;;;;12.68;2.28;;;;;;;;;;4458804;32;20645;-60
2022/06/06 16:11:17;;;;;;;6.82;2.37;;;;;;;;;;4449363;32;20207;-59
2022/06/06 16:14:07;;;;;;;11.63;2.25;;;;;;;;;;4448815;32;20240;-59
2022/06/06 16:16:39;;;;;;;6.55;2.37;;;;;;;;;;4448892;32;20726;-60
2022/06/06 16:19:11;;;;;;;3.62;2.05;;;;;;;;;;4449177;32;20355;-60
2022/06/06 16:21:48;;;;;;;4.82;2.90;;;;;;;;;;4449047;32;20258;-61
2022/06/06 16:24:21;;;;;;;8.07;2.87;;;;;;;;;;4449459;32;20185;-60
2022/06/06 16:26:55;;;;;;;3.70;2.28;;;;;;;;;;4460821;32;20236;-60
2022/06/06 16:29:26;;;;;;;8.85;2.42;;;;;;;;;;4464373;32;20192;-60
2022/06/06 16:31:58;;;;;;;6.18;2.35;;;;;;;;;;4462520;32;20331;-60
2022/06/06 16:34:37;;;;;;;9.07;2.97;;;;;;;;;;4464849;32;20267;-60
2022/06/06 16:37:10;;;;;;;7.72;2.75;;;;;;;;;;4465023;32;20600;-59
2022/06/06 16:39:51;;;;;;;8.95;3.08;;;;;;;;;;4465077;32;20192;-59
2022/06/06 16:48:18;;;;;;;6.75;2.60;;;;;;;;;;4448968;32;20220;-61
2022/06/06 16:51:29;;;;;;;11.50;3.70;;;;;;;;;;4449048;32;20216;-61
2022/06/06 16:54:01;;;;;;;7.68;2.22;;;;;;;;;;4436106;32;20250;-61
2022/06/06 16:56:48;;;;;;;5.72;2.55;;;;;;;;;;4459073;32;20296;-59
2022/06/06 16:59:31;;;;;;;16.37;3.62;;;;;;;;;;4464692;32;20239;-59
2022/06/06 17:02:17;;;;;;;12.95;3.62;;;;;;;;;;4463927;32;20727;-59
2022/06/06 17:04:53;;;;;;;8.18;3.00;;;;;;;;;;4464304;32;20218;-60
2022/06/06 17:07:58;;;;;;;5.20;2.90;;;;;;;;;;4457248;32;20311;-60
2022/06/06 17:10:49;;;;;;;8.10;3.95;;;;;;;;;;4447615;32;20407;-60
2022/06/06 17:13:33;;;;;;;5.57;2.37;;;;;;;;;;4447532;32;20268;-59
2022/06/06 17:16:03;;;;;;;7.65;2.72;;;;;;;;;;4448438;32;20181;-59
2022/06/06 17:18:32;;;;;;;12.45;3.33;;;;;;;;;;4448497;32;20205;-60
2022/06/06 17:21:21;;;;;;;8.05;3.33;;;;;;;;;;4448488;32;20200;-59
2022/06/06 17:24:01;;;;;;;10.57;3.17;;;;;;;;;;4426648;32;20312;-59
2022/06/06 17:26:45;;;;;;;5.12;2.83;;;;;;;;;;4451445;32;20246;-59
2022/06/06 17:29:28;;;;;;;5.55;2.62;;;;;;;;;;4451670;32;20189;-59
2022/06/06 17:32:12;;;;;;;4.80;2.70;;;;;;;;;;4451179;32;20517;-58
2022/06/06 17:34:39;;;;;;;9.50;2.78;;;;;;;;;;4451704;32;20229;-59
2022/06/06 17:37:08;;;;;;;11.77;2.25;;;;;;;;;;4451237;32;20270;-59
2022/06/06 17:39:47;;;;;;;5.75;2.87;;;;;;;;;;4451269;32;20493;-60
2022/06/06 17:42:18;;;;;;;5.97;2.87;;;;;;;;;;4451447;32;20221;-59
2022/06/06 17:44:49;;;;;;;10.18;2.97;;;;;;;;;;4451603;32;20272;-60
2022/06/06 17:47:41;;;;;;;5.10;2.95;;;;;;;;;;4449528;32;20225;-59
2022/06/06 17:50:30;;;;;;;6.50;3.30;;;;;;;;;;4445687;32;20288;-59
2022/06/06 17:53:32;;;;;;;3.83;2.58;;;;;;;;;;4462737;32;20209;-59
2022/06/06 17:56:11;;;;;;;8.40;3.22;;;;;;;;;;4466437;32;20213;-60
2022/06/06 17:58:58;;;;;;;8.43;3.67;;;;;;;;;;4465347;32;20224;-60
2022/06/06 18:01:42;;;;;;;8.15;3.45;;;;;;;;;;4466257;32;20362;-60
2022/06/06 18:04:29;;;;;;;9.25;3.33;;;;;;;;;;4455945;32;20193;-59
2022/06/06 18:07:14;;;;;;;7.50;3.65;;;;;;;;;;4451104;32;20238;-59
2022/06/06 18:09:55;;;;;;;9.63;3.00;;;;;;;;;;4462396;32;20339;-60
2022/06/06 18:12:43;;;;;;;6.95;2.62;;;;;;;;;;4463339;32;20277;-59
2022/06/06 18:15:17;;;;;;;6.00;2.92;;;;;;;;;;4466428;32;20224;-59
2022/06/06 18:17:56;;;;;;;4.78;2.58;;;;;;;;;;4465435;32;20253;-58
2022/06/06 18:20:50;;;;;;;7.97;2.50;;;;;;;;;;4464883;32;20231;-58
2022/06/06 18:23:22;;;;;;;9.10;2.75;;;;;;;;;;4466143;32;20193;-59
2022/06/06 18:25:54;;;;;;;9.07;3.05;;;;;;;;;;4466314;32;20267;-59
2022/06/06 18:28:51;;;;;;;12.45;2.78;;;;;;;;;;4466307;32;20263;-59
2022/06/06 18:31:57;;;;;;;6.95;2.92;;;;;;;;;;4464982;32;20224;-59
2022/06/06 18:34:34;;;;;;;5.72;2.47;;;;;;;;;;4466296;32;20200;-60
2022/06/06 18:37:03;;;;;;;8.73;3.03;;;;;;;;;;4465413;32;20349;-60
2022/06/06 18:39:44;;;;;;;7.07;2.55;;;;;;;;;;4466122;32;20219;-59
2022/06/06 18:42:27;;;;;;;7.75;2.72;;;;;;;;;;4466177;32;20313;-60
2022/06/06 18:45:16;;;;;;;3.37;2.65;;;;;;;;;;4466025;32;20193;-59
2022/06/06 18:47:46;;;;;;;11.73;3.80;;;;;;;;;;4466530;32;20243;-60
2022/06/06 18:50:29;;;;;;;5.80;2.50;;;;;;;;;;4465952;32;20645;-60
2022/06/06 18:53:41;;;;;;;10.70;3.58;;;;;;;;;;4454572;32;20608;-59
2022/06/06 18:56:24;;;;;;;9.82;3.33;;;;;;;;;;4457592;32;20233;-59
2022/06/06 18:58:55;;;;;;;9.02;3.25;;;;;;;;;;4465034;32;20252;-59
2022/06/06 19:01:26;;;;;;;12.63;3.50;;;;;;;;;;4449830;32;20244;-59
2022/06/06 19:04:11;;;;;;;5.87;3.28;;;;;;;;;;4449906;32;20197;-60
2022/06/06 19:06:40;;;;;;;6.47;2.67;;;;;;;;;;4450282;32;20209;-60
2022/06/06 19:09:24;;;;;;;8.15;3.50;;;;;;;;;;4448637;32;20233;-61
2022/06/06 19:11:50;;;;;;;4.82;2.83;;;;;;;;;;4460504;32;20298;-59
2022/06/06 19:14:24;;;;;;;7.95;3.47;;;;;;;;;;4461061;32;20258;-59
2022/06/06 19:16:51;;;;;;;10.38;3.25;;;;;;;;;;4455996;32;20337;-59
2022/06/06 19:19:31;;;;;;;8.80;3.53;;;;;;;;;;4466074;32;20569;-58
2022/06/06 19:21:58;;;;;;;4.40;2.85;;;;;;;;;;4465411;32;20685;-59
2022/06/06 19:24:27;;;;;;;4.35;2.85;;;;;;;;;;4465480;32;20192;-59
2022/06/06 19:27:09;;;;;;;4.80;3.08;;;;;;;;;;4464143;32;20247;-59
2022/06/06 19:29:39;;;;;;;8.38;3.37;;;;;;;;;;4464171;32;20724;-59
2022/06/06 19:32:13;;;;;;;6.85;3.28;;;;;;;;;;4456930;32;20295;-59
2022/06/06 19:35:10;;;;;;;9.85;5.12;;;;;;;;;;4451836;32;20247;-59
2022/06/06 19:37:40;;;;;;;7.07;3.30;;;;;;;;;;4453521;32;20236;-58
2022/06/06 19:40:15;;;;;;;8.07;3.47;;;;;;;;;;4449331;32;20235;-58
2022/06/06 19:42:41;;;;;;;3.75;2.70;;;;;;;;;;4463505;32;20539;-59
2022/06/06 19:45:33;;;;;;;4.10;3.60;;;;;;;;;;4458599;32;20501;-59
2022/06/06 19:47:59;;;;;;;4.72;2.80;;;;;;;;;;4447988;32;20478;-58
2022/06/06 19:51:00;;;;;;;6.37;2.97;;;;;;;;;;4448489;32;20635;-58
2022/06/06 19:53:46;;;;;;;5.10;2.62;;;;;;;;;;4460077;32;20204;-59
2022/06/06 19:56:15;;;;;;;4.50;2.90;;;;;;;;;;4450093;32;20316;-59
2022/06/06 19:58:41;;;;;;;17.27;2.67;;;;;;;;;;4449181;32;20260;-59
2022/06/06 20:01:12;;;;;;;9.38;3.28;;;;;;;;;;4448921;32;20814;-59
2022/06/06 20:03:42;;;;;;;6.12;2.78;;;;;;;;;;4447980;32;20220;-59
2022/06/06 20:06:24;;;;;;;7.70;3.08;;;;;;;;;;4447598;32;20315;-59
2022/06/06 20:08:59;;;;;;;7.53;2.87;;;;;;;;;;4448554;32;20287;-60
2022/06/06 20:11:26;;;;;;;5.15;2.90;;;;;;;;;;4449229;32;20305;-59
2022/06/06 20:14:02;;;;;;;4.37;2.80;;;;;;;;;;4449164;32;20231;-59
2022/06/06 20:16:29;;;;;;;15.57;10.00;;;;;;;;;;4448972;32;20232;-59
2022/06/06 20:18:58;;;;;;;8.70;7.75;;;;;;;;;;4449023;32;20223;-60
2022/06/06 20:21:32;;;;;;;15.60;13.77;;;;;;;;;;4449138;32;20242;-59
2022/06/06 20:24:00;;;;;;;13.88;11.12;;;;;;;;;;4447541;32;20284;-59
2022/06/06 20:26:28;;;;;;;12.07;8.23;;;;;;;;;;4449037;32;20216;-59
2022/06/06 20:29:13;;;;;;;12.20;7.75;;;;;;;;;;4448754;32;20197;-58
2022/06/06 20:34:36;;;;;;;8.63;4.97;;;;;;;;;;4448941;32;20427;-59
2022/06/06 20:37:26;;;;;;;5.62;4.80;;;;;;;;;;4453951;32;20223;-59
2022/06/06 20:40:01;;;;;;;4.80;3.03;;;;;;;;;;4458391;32;20330;-59
2022/06/06 20:42:32;;;;;;;11.45;4.10;;;;;;;;;;4464253;32;20389;-59
2022/06/06 20:45:00;;;;;;;12.35;3.05;;;;;;;;;;4464036;32;20200;-59
2022/06/06 20:47:29;;;;;;;5.78;2.50;;;;;;;;;;4464128;32;20253;-59
2022/06/06 20:50:03;;;;;;;5.40;3.25;;;;;;;;;;4462907;32;20224;-59
2022/06/06 20:52:30;;;;;;;5.35;3.50;;;;;;;;;;4455530;32;20224;-59
2022/06/06 20:54:57;;;;;;;13.13;2.95;;;;;;;;;;4449544;32;20263;-59
2022/06/06 20:57:26;;;;;;;11.25;3.53;;;;;;;;;;4464593;32;20540;-59
2022/06/06 20:59:52;;;;;;;4.90;3.10;;;;;;;;;;4465201;32;20275;-59
2022/06/06 21:02:17;;;;;;;7.25;3.08;;;;;;;;;;4467669;32;20409;-59
2022/06/06 21:04:45;;;;;;;5.75;3.25;;;;;;;;;;4467470;32;20373;-59
2022/06/06 21:07:15;;;;;;;4.60;2.87;;;;;;;;;;4467438;32;20342;-59
2022/06/06 21:09:40;;;;;;;3.78;2.78;;;;;;;;;;4453648;32;20640;-59
2022/06/06 21:12:06;;;;;;;6.12;3.03;;;;;;;;;;4450332;32;20236;-58
2022/06/06 21:14:34;;;;;;;11.70;4.05;;;;;;;;;;4450175;32;20334;-59
2022/06/06 21:17:00;;;;;;;11.40;3.55;;;;;;;;;;4451407;32;21037;-59
2022/06/06 21:19:26;;;;;;;4.53;3.15;;;;;;;;;;4451826;32;20205;-59
2022/06/06 21:21:56;;;;;;;5.75;3.00;;;;;;;;;;4451327;32;20231;-59
2022/06/06 21:24:27;;;;;;;10.57;3.72;;;;;;;;;;4451468;32;20634;-59
2022/06/06 21:26:56;;;;;;;4.72;2.70;;;;;;;;;;4450273;32;20237;-59
2022/06/06 21:29:21;;;;;;;7.97;3.17;;;;;;;;;;4451255;32;20257;-59
2022/06/06 21:31:47;;;;;;;9.35;3.40;;;;;;;;;;4451296;32;20224;-59
2022/06/06 21:34:13;;;;;;;8.77;3.58;;;;;;;;;;4451315;32;20332;-58
2022/06/06 21:36:38;;;;;;;5.45;3.78;;;;;;;;;;4451422;32;20224;-58
2022/06/06 21:39:04;;;;;;;7.05;2.70;;;;;;;;;;4451730;32;20279;-58
2022/06/06 21:41:30;;;;;;;4.60;2.87;;;;;;;;;;4451239;32;20299;-59
2022/06/06 21:43:57;;;;;;;10.18;2.95;;;;;;;;;;4451053;32;20432;-59
2022/06/06 21:46:23;;;;;;;7.72;3.05;;;;;;;;;;4466219;32;20242;-58
2022/06/06 21:48:49;;;;;;;4.82;3.08;;;;;;;;;;4458011;32;20275;-58
2022/06/06 21:53:59;;;;;;;11.18;3.60;;;;;;;;;;4466520;32;20256;-58
2022/06/06 21:56:27;;;;;;;8.70;2.97;;;;;;;;;;4466509;32;20644;-58
2022/06/06 21:58:54;;;;;;;4.20;3.70;;;;;;;;;;4466352;32;20267;-59
2022/06/06 22:01:19;;;;;;;6.18;3.78;;;;;;;;;;4466742;32;20319;-59
2022/06/06 22:03:45;;;;;;;7.35;4.20;;;;;;;;;;4465849;32;20321;-58
2022/06/06 22:06:10;;;;;;;18.05;4.43;;;;;;;;;;4466480;32;20240;-58
2022/06/06 22:08:36;;;;;;;12.77;3.40;;;;;;;;;;4459571;32;20553;-58
2022/06/06 22:11:01;;;;;;;4.05;3.35;;;;;;;;;;4449885;32;20209;-58
2022/06/06 22:13:27;;;;;;;6.90;3.42;;;;;;;;;;4450820;32;20367;-59
2022/06/06 22:15:52;;;;;;;6.57;4.05;;;;;;;;;;4449418;32;20224;-58
2022/06/06 22:18:18;;;;;;;6.75;3.90;;;;;;;;;;4450796;32;20287;-58
2022/06/06 22:20:44;;;;;;;6.55;4.53;;;;;;;;;;4450590;32;20269;-59
2022/06/06 22:23:11;;;;;;;15.10;4.05;;;;;;;;;;4451043;32;20311;-59
2022/06/06 22:25:36;;;;;;;4.12;3.12;;;;;;;;;;4450561;32;20230;-59
2022/06/06 22:28:02;;;;;;;6.57;3.37;;;;;;;;;;4450842;32;20557;-59
2022/06/06 22:30:28;;;;;;;7.28;3.22;;;;;;;;;;4450263;32;20593;-59
2022/06/06 22:32:53;;;;;;;5.65;3.10;;;;;;;;;;4450989;32;20220;-59
2022/06/06 22:35:19;;;;;;;15.77;3.03;;;;;;;;;;4449413;32;20307;-59
2022/06/06 22:37:44;;;;;;;6.18;3.22;;;;;;;;;;4450438;32;20243;-59
2022/06/06 22:40:11;;;;;;;12.05;3.42;;;;;;;;;;4449967;32;20648;-59
2022/06/06 22:42:36;;;;;;;5.00;2.97;;;;;;;;;;4450265;32;20647;-59
2022/06/06 22:45:02;;;;;;;7.57;2.87;;;;;;;;;;4455344;32;20302;-59
2022/06/06 22:47:27;;;;;;;6.12;3.03;;;;;;;;;;4464629;32;20251;-59
2022/06/06 22:49:52;;;;;;;5.55;3.30;;;;;;;;;;4465632;32;20255;-59
2022/06/06 22:52:18;;;;;;;14.77;3.80;;;;;;;;;;4458647;32;20228;-58
2022/06/06 22:54:43;;;;;;;3.35;2.85;;;;;;;;;;4450316;32;20308;-58
2022/06/06 22:57:09;;;;;;;7.95;4.12;;;;;;;;;;4464928;32;20330;-59
2022/06/06 22:59:34;;;;;;;5.85;4.45;;;;;;;;;;4457997;32;20292;-59
2022/06/06 23:02:00;;;;;;;5.85;3.72;;;;;;;;;;4448543;32;20611;-59
2022/06/06 23:04:26;;;;;;;7.40;3.00;;;;;;;;;;4448876;32;20292;-59
2022/06/06 23:06:52;;;;;;;11.02;3.30;;;;;;;;;;4450005;32;20208;-59
2022/06/06 23:09:17;;;;;;;6.43;4.05;;;;;;;;;;4453263;32;20240;-59
2022/06/06 23:11:43;;;;;;;7.03;4.50;;;;;;;;;;4449950;32;20275;-58
2022/06/06 23:14:10;;;;;;;6.18;3.60;;;;;;;;;;4449486;32;20299;-59
2022/06/06 23:16:38;;;;;;;7.93;3.90;;;;;;;;;;4449664;32;20237;-58
2022/06/06 23:19:04;;;;;;;17.60;3.37;;;;;;;;;;4449654;32;20192;-59
2022/06/06 23:21:32;;;;;;;18.08;3.67;;;;;;;;;;4449651;32;20432;-59
2022/06/06 23:23:58;;;;;;;13.38;3.80;;;;;;;;;;4449362;32;20193;-59
2022/06/06 23:26:23;;;;;;;5.10;4.07;;;;;;;;;;4449455;32;20213;-59
2022/06/06 23:28:49;;;;;;;5.60;3.15;;;;;;;;;;4449309;32;20282;-58
2022/06/06 23:31:14;;;;;;;5.12;2.80;;;;;;;;;;4448187;32;20274;-58
2022/06/06 23:33:43;;;;;;;10.13;3.55;;;;;;;;;;4449539;32;20264;-58
2022/06/06 23:36:23;;;;;;;5.22;3.08;;;;;;;;;;4449059;32;20205;-58
2022/06/06 23:39:03;;;;;;;9.02;3.33;;;;;;;;;;4449619;32;20227;-58
2022/06/06 23:41:29;;;;;;;4.85;3.37;;;;;;;;;;4449155;32;20220;-59
2022/06/06 23:43:57;;;;;;;6.37;3.30;;;;;;;;;;4449292;32;20308;-59
2022/06/06 23:49:13;;;;;;;5.72;3.70;;;;;;;;;;4449145;32;20654;-59
2022/06/06 23:51:49;;;;;;;4.80;3.58;;;;;;;;;;4449016;32;20382;-59
2022/06/06 23:54:15;;;;;;;4.25;3.08;;;;;;;;;;4447875;32;20279;-60
2022/06/06 23:56:46;;;;;;;4.55;3.30;;;;;;;;;;4449593;32;20243;-59
2022/06/06 23:59:12;;;;;;;4.32;3.65;;;;;;;;;;4448888;32;20217;-59
